createdAt,value
2019-02-14T00:01:39.300Z,69.93
2019-02-14T00:04:07.566Z,70.04
2019-02-14T00:06:35.827Z,69.68
2019-02-14T00:09:04.853Z,70.09
2019-02-14T00:11:33.110Z,69.83
2019-02-14T00:14:01.383Z,69.80
2019-02-14T00:16:29.664Z,69.70
2019-02-14T00:18:57.913Z,69.57
2019-02-14T00:21:26.203Z,69.67
2019-02-14T00:23:54.704Z,69.32
2019-02-14T00:26:23.002Z,69.37
2019-02-14T00:28:51.260Z,69.08
2019-02-14T00:31:19.511Z,69.17
2019-02-14T00:33:47.786Z,68.51
2019-02-14T00:36:16.082Z,68.90
2019-02-14T00:38:44.334Z,68.14
2019-02-14T00:41:12.604Z,68.30
2019-02-14T00:43:40.886Z,68.16
2019-02-14T00:46:09.156Z,68.01
2019-02-14T00:48:37.408Z,67.91
2019-02-14T00:51:05.692Z,67.69
2019-02-14T00:53:33.940Z,67.80
2019-02-14T00:56:02.230Z,67.70
2019-02-14T00:58:30.483Z,67.82
2019-02-14T01:00:58.768Z,67.81
2019-02-14T01:03:27.026Z,68.02
2019-02-14T01:05:55.315Z,68.22
2019-02-14T01:08:23.574Z,67.99
2019-02-14T01:10:51.861Z,67.93
2019-02-14T01:13:20.493Z,67.29
2019-02-14T01:15:48.813Z,67.26
2019-02-14T01:18:17.110Z,67.72
2019-02-14T01:20:45.367Z,67.39
2019-02-14T01:23:13.637Z,66.82
2019-02-14T01:25:41.889Z,67.22
2019-02-14T01:28:10.174Z,66.52
2019-02-14T01:30:38.456Z,66.66
2019-02-14T01:33:06.708Z,66.13
2019-02-14T01:35:41.869Z,66.18
2019-02-14T01:38:04.977Z,66.17
2019-02-14T01:40:33.269Z,66.20
2019-02-14T01:43:01.578Z,66.80
2019-02-14T01:45:29.895Z,66.11
2019-02-14T01:47:58.149Z,66.14
2019-02-14T01:50:26.427Z,65.93
2019-02-14T01:52:54.684Z,66.08
2019-02-14T01:55:22.982Z,66.25
2019-02-14T01:57:51.265Z,66.40
2019-02-14T02:00:19.692Z,66.52
2019-02-14T02:02:47.986Z,66.41
2019-02-14T02:05:16.242Z,66.35
2019-02-14T02:07:44.571Z,66.59
2019-02-14T02:10:13.177Z,66.54
2019-02-14T02:12:41.444Z,66.92
2019-02-14T02:15:12.251Z,66.94
2019-02-14T02:17:40.507Z,67.11
2019-02-14T02:20:10.031Z,66.55
2019-02-14T02:22:38.288Z,66.85
2019-02-14T02:25:09.409Z,67.17
2019-02-14T02:27:37.686Z,67.06
2019-02-14T02:30:12.060Z,67.24
2019-02-14T02:32:40.329Z,67.25
2019-02-14T02:35:09.052Z,67.73
2019-02-14T02:37:37.327Z,67.82
2019-02-14T02:40:08.097Z,67.70
2019-02-14T02:42:36.370Z,67.47
2019-02-14T02:45:07.765Z,67.50
2019-02-14T02:47:36.059Z,67.64
2019-02-14T02:50:05.432Z,67.42
2019-02-14T02:52:33.691Z,67.35
2019-02-14T02:55:01.980Z,67.29
2019-02-14T02:57:30.266Z,67.22
2019-02-14T02:59:58.530Z,67.13
2019-02-14T03:02:26.787Z,66.87
2019-02-14T03:04:55.138Z,67.01
2019-02-14T03:07:23.474Z,66.99
2019-02-14T03:09:51.746Z,67.33
2019-02-14T03:12:20.044Z,66.90
2019-02-14T03:14:48.330Z,67.32
2019-02-14T03:17:16.601Z,67.07
2019-02-14T03:19:44.858Z,66.67
2019-02-14T03:22:13.108Z,67.06
2019-02-14T03:24:41.391Z,67.50
2019-02-14T03:27:09.648Z,67.04
2019-02-14T03:29:37.938Z,66.94
2019-02-14T03:32:06.188Z,67.01
2019-02-14T03:34:34.468Z,66.83
2019-02-14T03:37:02.721Z,67.11
2019-02-14T03:39:30.983Z,67.17
2019-02-14T03:41:59.267Z,67.09
2019-02-14T03:44:27.521Z,67.27
2019-02-14T03:46:55.773Z,66.82
2019-02-14T03:49:24.056Z,66.74
2019-02-14T03:51:52.321Z,67.30
2019-02-14T03:54:20.622Z,67.06
2019-02-14T03:56:48.903Z,66.81
2019-02-14T03:59:17.217Z,66.77
2019-02-14T04:01:45.476Z,66.88
2019-02-14T04:04:13.721Z,66.91
2019-02-14T04:06:41.993Z,67.11
2019-02-14T04:09:10.310Z,67.29
2019-02-14T04:11:38.564Z,67.10
2019-02-14T04:14:06.810Z,67.06
2019-02-14T04:16:35.100Z,67.24
2019-02-14T04:19:03.369Z,67.14
2019-02-14T04:21:31.660Z,66.94
2019-02-14T04:24:00.017Z,66.76
2019-02-14T04:26:28.276Z,66.61
2019-02-14T04:28:56.541Z,66.35
2019-02-14T04:31:24.828Z,66.43
2019-02-14T04:33:53.092Z,66.23
2019-02-14T04:36:21.383Z,66.49
2019-02-14T04:38:49.643Z,66.19
2019-02-14T04:41:17.897Z,66.32
2019-02-14T04:43:46.218Z,66.12
2019-02-14T04:46:14.476Z,66.52
2019-02-14T04:48:43.137Z,66.24
2019-02-14T04:51:11.492Z,65.99
2019-02-14T04:53:39.758Z,66.51
2019-02-14T04:56:08.055Z,66.12
2019-02-14T04:58:36.321Z,66.16
2019-02-14T05:01:04.584Z,66.15
2019-02-14T05:03:32.834Z,66.28
2019-02-14T05:06:01.645Z,66.01
2019-02-14T05:08:30.033Z,65.84
2019-02-14T05:10:58.322Z,66.13
2019-02-14T05:13:26.571Z,65.97
2019-02-14T05:15:54.892Z,66.08
2019-02-14T05:18:23.150Z,66.19
2019-02-14T05:20:51.404Z,66.64
2019-02-14T05:23:19.692Z,66.57
2019-02-14T05:25:47.942Z,66.49
2019-02-14T05:28:16.230Z,67.03
2019-02-14T05:30:44.551Z,66.76
2019-02-14T05:33:12.795Z,66.63
2019-02-14T05:35:41.061Z,66.64
2019-02-14T05:38:09.327Z,66.87
2019-02-14T05:40:37.583Z,66.42
2019-02-14T05:43:05.865Z,66.37
2019-02-14T05:45:34.111Z,66.74
2019-02-14T05:48:02.394Z,66.64
2019-02-14T05:50:30.646Z,66.58
2019-02-14T05:52:58.933Z,66.44
2019-02-14T05:55:27.185Z,66.71
2019-02-14T05:57:55.472Z,66.67
2019-02-14T06:00:23.821Z,66.58
2019-02-14T06:02:52.071Z,66.98
2019-02-14T06:05:20.392Z,67.37
2019-02-14T06:07:48.646Z,66.95
2019-02-14T06:10:16.906Z,67.24
2019-02-14T06:12:45.194Z,66.93
2019-02-14T06:15:13.812Z,66.73
2019-02-14T06:17:42.088Z,66.90
2019-02-14T06:20:13.324Z,67.04
2019-02-14T06:22:41.611Z,66.91
2019-02-14T06:25:11.011Z,67.12
2019-02-14T06:27:39.271Z,66.87
2019-02-14T06:30:10.401Z,66.98
2019-02-14T06:32:38.663Z,67.14
2019-02-14T06:35:08.521Z,67.22
2019-02-14T06:37:36.776Z,67.59
2019-02-14T06:40:08.079Z,67.62
2019-02-14T06:42:36.368Z,67.54
2019-02-14T06:45:07.076Z,67.91
2019-02-14T06:47:35.334Z,68.42
2019-02-14T06:50:03.613Z,68.22
2019-02-14T06:52:31.878Z,68.32
2019-02-14T06:55:00.286Z,68.04
2019-02-14T06:57:28.508Z,67.81
2019-02-14T06:59:56.755Z,68.18
2019-02-14T07:02:25.046Z,68.03
2019-02-14T07:04:53.301Z,68.00
2019-02-14T07:07:21.569Z,67.96
2019-02-14T07:09:49.849Z,68.23
2019-02-14T07:12:18.094Z,68.19
2019-02-14T07:14:46.381Z,68.18
2019-02-14T07:17:14.634Z,68.15
2019-02-14T07:19:42.913Z,67.96
2019-02-14T07:22:11.168Z,67.74
2019-02-14T07:24:39.470Z,67.71
2019-02-14T07:27:07.729Z,67.75
2019-02-14T07:29:35.992Z,68.14
2019-02-14T07:32:04.321Z,68.26
2019-02-14T07:34:32.577Z,68.12
2019-02-14T07:37:00.825Z,67.87
2019-02-14T07:39:29.116Z,68.18
2019-02-14T07:41:57.367Z,67.99
2019-02-14T07:44:25.686Z,68.21
2019-02-14T07:46:53.942Z,68.34
2019-02-14T07:49:22.188Z,68.38
2019-02-14T07:51:50.453Z,68.07
2019-02-14T07:54:18.726Z,68.34
2019-02-14T07:56:47.014Z,68.14
2019-02-14T07:59:15.269Z,68.22
2019-02-14T08:01:43.563Z,68.47
2019-02-14T08:04:11.815Z,68.06
2019-02-14T08:06:40.073Z,68.02
2019-02-14T08:09:08.355Z,68.35
2019-02-14T08:11:36.619Z,68.54
2019-02-14T08:14:04.913Z,68.30
2019-02-14T08:16:33.203Z,68.02
2019-02-14T08:19:01.470Z,68.05
2019-02-14T08:21:29.720Z,68.33
2019-02-14T08:23:58.009Z,68.53
2019-02-14T08:26:26.266Z,68.07
2019-02-14T08:28:54.547Z,67.84
2019-02-14T08:31:22.820Z,68.07
2019-02-14T08:33:51.173Z,68.22
2019-02-14T08:36:19.530Z,67.98
2019-02-14T08:38:47.818Z,68.26
2019-02-14T08:41:16.074Z,68.04
2019-02-14T08:43:44.338Z,68.54
2019-02-14T08:46:13.482Z,68.51
2019-02-14T08:48:41.752Z,67.84
2019-02-14T08:51:10.009Z,67.76
2019-02-14T08:53:38.294Z,67.88
2019-02-14T08:56:06.597Z,67.93
2019-02-14T08:58:34.847Z,68.12
2019-02-14T09:01:03.101Z,67.91
2019-02-14T09:03:31.383Z,67.52
2019-02-14T09:05:59.660Z,67.76
2019-02-14T09:08:27.917Z,67.59
2019-02-14T09:10:56.180Z,67.30
2019-02-14T09:13:24.455Z,67.55
2019-02-14T09:15:52.718Z,67.75
2019-02-14T09:18:21.007Z,67.79
2019-02-14T09:20:49.257Z,68.07
2019-02-14T09:23:17.531Z,68.01
2019-02-14T09:25:45.800Z,67.53
2019-02-14T09:28:14.052Z,67.73
2019-02-14T09:30:42.735Z,67.44
2019-02-14T09:33:11.062Z,67.20
2019-02-14T09:35:39.316Z,67.52
2019-02-14T09:38:07.611Z,67.72
2019-02-14T09:40:35.903Z,68.17
2019-02-14T09:43:04.176Z,68.10
2019-02-14T09:45:32.462Z,67.72
2019-02-14T09:48:00.770Z,67.53
2019-02-14T09:50:29.033Z,67.61
2019-02-14T09:52:57.296Z,67.56
2019-02-14T09:55:25.585Z,67.64
2019-02-14T09:57:53.856Z,67.26
2019-02-14T10:00:22.139Z,67.47
2019-02-14T10:02:50.439Z,67.47
2019-02-14T10:05:18.688Z,68.03
2019-02-14T10:07:46.983Z,68.11
2019-02-14T10:10:19.775Z,67.80
2019-02-14T10:12:48.079Z,67.78
2019-02-14T10:15:16.333Z,67.74
2019-02-14T10:17:44.599Z,67.44
2019-02-14T10:20:16.998Z,67.25
2019-02-14T10:22:45.243Z,67.10
2019-02-14T10:25:13.836Z,67.19
2019-02-14T10:27:42.315Z,67.37
2019-02-14T10:30:13.564Z,67.40
2019-02-14T10:32:41.818Z,67.35
2019-02-14T10:35:10.084Z,67.79
2019-02-14T10:37:38.372Z,67.67
2019-02-14T10:40:12.702Z,67.30
2019-02-14T10:42:40.968Z,67.53
2019-02-14T10:45:20.895Z,67.02
2019-02-14T10:47:49.198Z,67.01
2019-02-14T10:50:17.464Z,66.67
2019-02-14T10:52:45.721Z,66.69
2019-02-14T10:55:15.022Z,66.73
2019-02-14T10:57:43.392Z,65.85
2019-02-14T11:00:22.983Z,66.18
2019-02-14T11:02:51.375Z,65.95
2019-02-14T11:05:19.805Z,65.57
2019-02-14T11:07:48.068Z,65.63
2019-02-14T11:10:16.657Z,65.31
2019-02-14T11:12:44.950Z,65.30
2019-02-14T11:15:18.789Z,65.37
2019-02-14T11:17:48.946Z,64.98
2019-02-14T11:20:18.013Z,64.79
2019-02-14T11:22:48.669Z,64.83
2019-02-14T11:25:25.656Z,64.25
2019-02-14T11:27:53.956Z,64.11
2019-02-14T11:30:22.217Z,64.22
2019-02-14T11:32:50.471Z,64.14
2019-02-14T11:35:18.772Z,63.85
2019-02-14T11:37:47.055Z,63.81
2019-02-14T11:40:15.315Z,64.03
2019-02-14T11:42:43.599Z,63.84
2019-02-14T11:45:17.633Z,63.85
2019-02-14T11:47:45.894Z,63.02
2019-02-14T11:50:14.185Z,63.17
2019-02-14T11:52:42.444Z,62.97
2019-02-14T11:55:11.244Z,62.73
2019-02-14T11:57:39.541Z,62.57
2019-02-14T12:00:14.993Z,62.39
2019-02-14T12:02:43.287Z,62.56
2019-02-14T12:05:11.554Z,62.12
2019-02-14T12:07:39.845Z,61.62
2019-02-14T12:10:13.409Z,60.25
2019-02-14T12:12:41.246Z,59.93
2019-02-14T12:15:10.912Z,60.70
2019-02-14T12:17:39.170Z,60.69
2019-02-14T12:20:12.356Z,60.53
2019-02-14T12:22:46.267Z,60.81
2019-02-14T12:25:15.720Z,60.01
2019-02-14T12:27:44.042Z,59.43
2019-02-14T12:30:14.229Z,59.29
2019-02-14T12:32:42.479Z,58.73
2019-02-14T12:35:10.776Z,58.23
2019-02-14T12:37:39.032Z,58.47
2019-02-14T12:40:10.069Z,57.09
2019-02-14T12:42:38.315Z,57.13
2019-02-14T12:45:20.236Z,56.08
2019-02-14T12:47:42.355Z,55.79
2019-02-14T12:50:10.617Z,55.60
2019-02-14T12:52:38.904Z,55.70
2019-02-14T12:55:07.160Z,56.04
2019-02-14T12:57:35.450Z,55.00
2019-02-14T13:00:05.374Z,54.60
2019-02-14T13:02:33.598Z,54.00
2019-02-14T13:05:01.852Z,51.92
2019-02-14T13:07:30.162Z,51.68
2019-02-14T13:09:58.422Z,49.55
2019-02-14T13:12:26.694Z,46.94
2019-02-14T13:14:55.005Z,45.78
2019-02-14T13:17:23.264Z,44.61
2019-02-14T13:19:51.527Z,43.26
2019-02-14T13:22:19.806Z,42.61
2019-02-14T13:24:48.106Z,42.92
2019-02-14T13:27:16.369Z,42.50
2019-02-14T13:29:44.645Z,41.90
2019-02-14T13:32:13.712Z,42.48
2019-02-14T13:34:42.087Z,43.07
2019-02-14T13:37:10.355Z,41.10
2019-02-14T13:39:38.642Z,40.90
2019-02-14T13:42:06.890Z,41.36
2019-02-14T13:44:35.189Z,42.10
2019-02-14T13:47:03.456Z,41.79
2019-02-14T13:49:32.725Z,42.14
2019-02-14T13:52:01.189Z,41.89
2019-02-14T13:54:29.471Z,42.21
2019-02-14T13:56:57.742Z,41.90
2019-02-14T13:59:26.033Z,41.82
2019-02-14T14:01:54.316Z,41.82
2019-02-14T14:04:22.603Z,40.91
2019-02-14T14:06:50.891Z,41.07
2019-02-14T14:09:19.158Z,40.86
2019-02-14T14:11:47.425Z,39.61
2019-02-14T14:14:15.714Z,40.00
2019-02-14T14:16:43.981Z,39.93
2019-02-14T14:19:12.283Z,39.83
2019-02-14T14:21:40.551Z,39.73
2019-02-14T14:24:08.821Z,39.78
2019-02-14T14:26:37.112Z,39.37
2019-02-14T14:29:05.398Z,40.42
2019-02-14T14:31:33.688Z,40.42
2019-02-14T14:34:01.956Z,40.86
2019-02-14T14:36:30.260Z,41.54
2019-02-14T14:38:58.582Z,41.43
2019-02-14T14:41:26.851Z,40.74
2019-02-14T14:43:59.516Z,40.14
2019-02-14T14:46:29.365Z,40.87
2019-02-14T14:48:57.676Z,41.46
2019-02-14T14:51:25.938Z,42.69
2019-02-14T14:53:54.205Z,44.18
2019-02-14T14:56:22.480Z,45.02
2019-02-14T14:58:50.736Z,46.39
2019-02-14T15:01:19.031Z,46.72
2019-02-14T15:03:47.320Z,48.02
2019-02-14T15:06:15.583Z,48.48
2019-02-14T15:08:43.921Z,49.39
2019-02-14T15:11:12.226Z,50.03
2019-02-14T15:13:40.493Z,50.95
2019-02-14T15:16:08.747Z,51.32
2019-02-14T15:18:37.042Z,51.88
2019-02-14T15:21:05.352Z,53.00
2019-02-14T15:23:33.597Z,53.65
2019-02-14T15:26:01.865Z,53.56
2019-02-14T15:28:30.189Z,54.54
2019-02-14T15:30:58.480Z,54.63
2019-02-14T15:33:26.747Z,55.15
2019-02-14T15:35:55.033Z,55.33
2019-02-14T15:38:23.296Z,56.43
2019-02-14T15:40:51.562Z,56.77
2019-02-14T15:43:19.821Z,57.00
2019-02-14T15:45:48.115Z,57.19
2019-02-14T15:48:16.386Z,57.08
2019-02-14T15:50:44.666Z,57.54
2019-02-14T15:53:12.930Z,58.14
2019-02-14T15:55:43.655Z,58.48
2019-02-14T15:58:11.390Z,59.28
2019-02-14T16:00:39.677Z,59.31
2019-02-14T16:03:07.953Z,59.29
2019-02-14T16:05:38.062Z,59.55
2019-02-14T16:08:06.230Z,60.25
2019-02-14T16:10:34.532Z,60.10
2019-02-14T16:13:02.788Z,60.34
2019-02-14T16:15:33.632Z,60.39
2019-02-14T16:18:01.635Z,60.87
2019-02-14T16:20:29.999Z,61.23
2019-02-14T16:22:58.278Z,60.99
2019-02-14T16:25:28.225Z,61.18
2019-02-14T16:27:56.604Z,61.67
2019-02-14T16:30:24.866Z,61.48
2019-02-14T16:32:53.175Z,62.04
2019-02-14T16:35:21.502Z,62.09
2019-02-14T16:37:50.533Z,62.17
2019-02-14T16:40:27.562Z,62.59
2019-02-14T16:42:49.016Z,62.53
2019-02-14T16:45:17.306Z,62.45
2019-02-14T16:47:45.569Z,62.58
2019-02-14T16:50:13.844Z,62.94
2019-02-14T16:52:42.138Z,62.79
2019-02-14T16:55:10.425Z,62.75
2019-02-14T16:57:38.691Z,62.78
2019-02-14T17:00:10.385Z,62.75
2019-02-14T17:02:38.691Z,63.19
2019-02-14T17:05:06.963Z,63.93
2019-02-14T17:07:35.221Z,64.29
2019-02-14T17:10:03.848Z,64.60
2019-02-14T17:12:32.110Z,64.63
2019-02-14T17:15:00.440Z,64.57
2019-02-14T17:17:28.716Z,64.97
2019-02-14T17:19:57.004Z,64.75
2019-02-14T17:22:25.294Z,64.82
2019-02-14T17:24:53.549Z,65.09
2019-02-14T17:27:21.801Z,64.74
2019-02-14T17:29:50.111Z,64.40
2019-02-14T17:32:18.376Z,64.40
2019-02-14T17:34:46.661Z,64.48
2019-02-14T17:37:14.930Z,64.55
2019-02-14T17:39:43.224Z,64.29
2019-02-14T17:42:11.484Z,64.31
2019-02-14T17:44:39.777Z,64.61
2019-02-14T17:47:08.125Z,64.87
2019-02-14T17:49:36.414Z,64.67
2019-02-14T17:52:04.671Z,64.24
2019-02-14T17:54:32.965Z,64.07
2019-02-14T17:57:01.224Z,64.17
2019-02-14T17:59:29.498Z,64.14
2019-02-14T18:01:57.760Z,64.36
2019-02-14T18:04:26.037Z,64.28
2019-02-14T18:06:54.318Z,64.94
2019-02-14T18:09:22.607Z,65.11
2019-02-14T18:11:50.866Z,64.79
2019-02-14T18:14:19.183Z,64.62
2019-02-14T18:16:47.443Z,64.11
2019-02-14T18:19:15.706Z,64.49
2019-02-14T18:21:44.042Z,64.90
2019-02-14T18:24:12.298Z,64.92
2019-02-14T18:26:52.536Z,64.84
2019-02-14T18:29:28.381Z,64.79
2019-02-14T18:31:56.652Z,64.97
2019-02-14T18:34:24.909Z,65.10
2019-02-14T18:36:53.203Z,65.11
2019-02-14T18:39:21.478Z,65.95
2019-02-14T18:41:49.799Z,65.40
2019-02-14T18:44:18.525Z,65.22
2019-02-14T18:46:46.782Z,65.29
2019-02-14T18:49:15.081Z,65.25
2019-02-14T18:51:43.347Z,65.40
2019-02-14T18:54:11.611Z,65.46
2019-02-14T18:56:39.890Z,65.64
2019-02-14T18:59:08.172Z,65.90
2019-02-14T19:01:36.434Z,65.32
2019-02-14T19:04:04.753Z,65.73
2019-02-14T19:06:33.015Z,65.31
2019-02-14T19:09:01.451Z,65.36
2019-02-14T19:11:29.875Z,65.18
2019-02-14T19:13:58.420Z,65.33
2019-02-14T19:16:26.679Z,65.35
2019-02-14T19:18:54.938Z,65.24
2019-02-14T19:21:23.213Z,65.18
2019-02-14T19:23:51.491Z,65.42
2019-02-14T19:26:19.788Z,65.69
2019-02-14T19:28:48.047Z,65.68
2019-02-14T19:31:16.364Z,65.52
2019-02-14T19:33:44.593Z,65.49
2019-02-14T19:36:12.881Z,65.93
2019-02-14T19:38:41.146Z,65.75
2019-02-14T19:41:09.433Z,65.64
2019-02-14T19:43:37.740Z,65.49
2019-02-14T19:46:06.003Z,65.75
2019-02-14T19:48:34.269Z,65.72
2019-02-14T19:51:02.842Z,65.94
2019-02-14T19:53:31.100Z,65.91
2019-02-14T19:55:59.373Z,66.01
2019-02-14T19:58:27.669Z,65.75
2019-02-14T20:00:55.931Z,65.73
2019-02-14T20:03:24.237Z,65.69
2019-02-14T20:05:52.504Z,65.86
2019-02-14T20:08:20.771Z,65.82
2019-02-14T20:10:49.469Z,65.75
2019-02-14T20:13:17.708Z,66.17
2019-02-14T20:15:45.972Z,66.64
2019-02-14T20:18:14.297Z,66.62
2019-02-14T20:20:42.548Z,66.44
2019-02-14T20:23:10.809Z,66.59
2019-02-14T20:25:39.113Z,66.15
2019-02-14T20:28:07.446Z,66.08
2019-02-14T20:30:35.705Z,66.10
2019-02-14T20:33:05.000Z,66.47
2019-02-14T20:35:33.458Z,67.31
2019-02-14T20:38:01.762Z,67.30
2019-02-14T20:40:31.969Z,67.14
2019-02-14T20:43:00.011Z,67.09
2019-02-14T20:45:28.277Z,67.15
2019-02-14T20:47:57.363Z,67.21
2019-02-14T20:50:25.710Z,66.97
2019-02-14T20:52:53.980Z,66.95
2019-02-14T20:55:25.150Z,66.99
2019-02-14T20:57:53.587Z,67.03
2019-02-14T21:00:35.495Z,67.30
2019-02-14T21:03:03.754Z,67.15
2019-02-14T21:05:32.042Z,67.21
2019-02-14T21:08:00.312Z,66.84
2019-02-14T21:10:28.653Z,67.06
2019-02-14T21:12:56.931Z,67.12
2019-02-14T21:15:25.197Z,67.51
2019-02-14T21:17:53.477Z,67.12
2019-02-14T21:20:21.762Z,67.21
2019-02-14T21:22:50.021Z,66.90
2019-02-14T21:25:22.455Z,66.96
2019-02-14T21:27:48.370Z,67.61
2019-02-14T21:30:18.111Z,67.71
2019-02-14T21:32:46.483Z,68.00
2019-02-14T21:35:15.109Z,68.21
2019-02-14T21:37:43.425Z,68.19
2019-02-14T21:40:15.745Z,68.11
2019-02-14T21:42:44.043Z,68.24
2019-02-14T21:45:14.469Z,67.92
2019-02-14T21:47:42.741Z,67.80
2019-02-14T21:50:12.050Z,67.59
2019-02-14T21:52:40.441Z,67.95
2019-02-14T21:55:10.637Z,67.82
2019-02-14T21:57:38.935Z,68.07
2019-02-14T22:00:14.111Z,68.77
2019-02-14T22:02:42.908Z,68.98
2019-02-14T22:05:11.540Z,69.16
2019-02-14T22:07:39.817Z,69.14
2019-02-14T22:10:10.512Z,68.96
2019-02-14T22:12:41.836Z,69.04
2019-02-14T22:15:14.475Z,69.35
2019-02-14T22:17:42.756Z,69.20
2019-02-14T22:20:11.049Z,69.30
2019-02-14T22:22:39.340Z,69.36
2019-02-14T22:25:10.038Z,69.70
2019-02-14T22:27:38.519Z,70.09
2019-02-14T22:30:11.055Z,70.64
2019-02-14T22:32:39.344Z,71.05
2019-02-14T22:35:07.643Z,70.87
2019-02-14T22:37:35.904Z,71.01
2019-02-14T22:40:06.046Z,71.32
2019-02-14T22:42:34.304Z,71.99
2019-02-14T22:45:02.565Z,72.07
2019-02-14T22:47:30.858Z,71.86
2019-02-14T22:49:59.161Z,71.61
2019-02-14T22:52:27.470Z,71.83
2019-02-14T22:54:55.743Z,72.45
2019-02-14T22:57:24.073Z,72.55
2019-02-14T22:59:52.361Z,72.80
2019-02-14T23:02:20.707Z,72.70
2019-02-14T23:04:49.004Z,72.65
2019-02-14T23:07:17.265Z,72.53
2019-02-14T23:09:45.618Z,72.63
2019-02-14T23:12:17.254Z,72.54
2019-02-14T23:14:45.565Z,72.44
2019-02-14T23:17:13.873Z,72.37
2019-02-14T23:19:42.136Z,71.99
2019-02-14T23:22:10.389Z,71.94
2019-02-14T23:24:38.722Z,71.89
2019-02-14T23:27:07.053Z,72.08
2019-02-14T23:29:35.313Z,71.69
2019-02-14T23:32:03.752Z,71.57
2019-02-14T23:34:32.007Z,72.01
2019-02-14T23:37:00.277Z,72.48
2019-02-14T23:39:28.568Z,72.41
2019-02-14T23:41:56.826Z,72.72
2019-02-14T23:44:25.124Z,73.08
2019-02-14T23:46:53.374Z,73.05
2019-02-14T23:49:21.701Z,73.13
2019-02-14T23:51:49.968Z,72.75
2019-02-14T23:54:18.301Z,73.00
2019-02-14T23:56:46.598Z,72.61
2019-02-14T23:59:14.855Z,73.11
